createdAt,value
2022-12-24T00:01:38.972Z,98.72
2022-12-24T00:04:06.249Z,98.79
2022-12-24T00:06:33.271Z,98.74
2022-12-24T00:09:00.283Z,99.13
2022-12-24T00:11:27.201Z,99.16
2022-12-24T00:13:54.111Z,98.66
2022-12-24T00:16:20.973Z,98.32
2022-12-24T00:18:47.938Z,99.04
2022-12-24T00:21:16.268Z,98.66
2022-12-24T00:23:43.780Z,98.53
2022-12-24T00:26:11.454Z,99.06
2022-12-24T00:28:38.484Z,98.85
2022-12-24T00:31:13.829Z,98.78
2022-12-24T00:33:41.971Z,98.92
2022-12-24T00:36:09.673Z,98.53
2022-12-24T00:38:37.366Z,98.64
2022-12-24T00:41:06.529Z,98.45
2022-12-24T00:43:33.528Z,98.21
2022-12-24T00:46:00.527Z,98.65
2022-12-24T00:48:27.496Z,98.95
2022-12-24T00:50:54.714Z,99.49
2022-12-24T00:53:21.830Z,99.51
2022-12-24T00:55:48.797Z,99.20
2022-12-24T00:58:15.694Z,98.44
2022-12-24T01:00:42.768Z,98.66
2022-12-24T01:03:09.814Z,98.79
2022-12-24T01:05:36.827Z,98.50
2022-12-24T01:08:03.763Z,98.59
2022-12-24T01:10:30.845Z,98.75
2022-12-24T01:12:57.750Z,98.22
2022-12-24T01:15:24.981Z,98.25
2022-12-24T01:17:52.069Z,98.48
2022-12-24T01:20:19.234Z,98.33
2022-12-24T01:22:46.383Z,98.81
2022-12-24T01:25:13.355Z,98.69
2022-12-24T01:27:40.341Z,98.93
2022-12-24T01:30:09.636Z,98.98
2022-12-24T01:32:36.722Z,98.79
2022-12-24T01:35:04.104Z,99.23
2022-12-24T01:37:31.003Z,99.26
2022-12-24T01:40:17.942Z,99.58
2022-12-24T01:43:06.825Z,100.00
2022-12-24T01:45:48.775Z,100.00
2022-12-24T01:48:23.324Z,100.00
2022-12-24T01:50:56.120Z,100.00
2022-12-24T01:53:23.948Z,100.00
2022-12-24T01:55:51.509Z,100.00
2022-12-24T01:58:21.221Z,100.00
2022-12-24T02:00:48.514Z,100.00
2022-12-24T02:03:15.736Z,100.00
2022-12-24T02:05:48.600Z,100.00
2022-12-24T02:08:16.926Z,100.00
2022-12-24T02:10:44.954Z,100.00
2022-12-24T02:13:12.798Z,100.00
2022-12-24T02:15:45.621Z,100.00
2022-12-24T02:18:26.671Z,100.00
2022-12-24T02:21:31.369Z,100.00
2022-12-24T02:23:58.306Z,100.00
2022-12-24T02:26:25.143Z,100.00
2022-12-24T02:29:31.202Z,100.00
2022-12-24T02:32:24.608Z,100.00
2022-12-24T02:35:16.079Z,100.00
2022-12-24T02:38:18.119Z,100.00
2022-12-24T02:40:57.362Z,100.00
2022-12-24T02:43:29.401Z,100.00
2022-12-24T02:46:01.415Z,100.00
2022-12-24T02:48:30.733Z,100.00
2022-12-24T02:51:02.878Z,100.00
2022-12-24T02:53:30.714Z,100.00
2022-12-24T02:56:31.068Z,100.00
2022-12-24T02:59:07.192Z,100.00
2022-12-24T03:01:53.093Z,100.00
2022-12-24T03:04:39.844Z,100.00
2022-12-24T03:07:23.879Z,100.00
2022-12-24T03:26:53.262Z,100.00
2022-12-24T03:29:20.550Z,100.00
2022-12-24T03:31:51.174Z,100.00
2022-12-24T03:34:19.311Z,100.00
2022-12-24T03:36:48.615Z,100.00
2022-12-24T03:39:15.728Z,100.00
2022-12-24T03:41:42.714Z,100.00
2022-12-24T03:44:09.856Z,100.00
2022-12-24T03:46:36.909Z,100.00
2022-12-24T03:49:03.784Z,100.00
2022-12-24T03:51:30.831Z,100.00
2022-12-24T03:53:58.416Z,100.00
2022-12-24T03:56:26.385Z,100.00
2022-12-24T03:58:53.812Z,100.00
2022-12-24T04:01:20.979Z,100.00
2022-12-24T04:03:48.064Z,100.00
2022-12-24T04:06:18.092Z,100.00
2022-12-24T04:08:45.359Z,100.00
2022-12-24T04:11:37.925Z,100.00
2022-12-24T04:14:04.859Z,100.00
2022-12-24T04:16:31.919Z,100.00
2022-12-24T04:19:07.457Z,100.00
2022-12-24T04:21:34.267Z,100.00
2022-12-24T04:24:01.359Z,100.00
2022-12-24T04:26:28.370Z,100.00
2022-12-24T04:28:55.367Z,100.00
2022-12-24T04:31:22.513Z,100.00
2022-12-24T04:33:52.015Z,100.00
2022-12-24T04:36:20.290Z,100.00
2022-12-24T04:38:48.931Z,100.00
2022-12-24T04:41:24.299Z,100.00
2022-12-24T04:43:53.843Z,100.00
2022-12-24T04:46:26.724Z,100.00
2022-12-24T04:48:54.644Z,100.00
2022-12-24T04:51:22.064Z,100.00
2022-12-24T04:53:49.098Z,100.00
2022-12-24T04:56:27.745Z,100.00
2022-12-24T04:58:55.678Z,100.00
2022-12-24T05:01:25.406Z,100.00
2022-12-24T05:03:52.930Z,100.00
2022-12-24T05:06:22.748Z,100.00
2022-12-24T05:08:50.111Z,100.00
2022-12-24T05:11:17.386Z,100.00
2022-12-24T05:13:47.518Z,100.00
2022-12-24T05:16:17.145Z,100.00
2022-12-24T05:18:44.264Z,100.00
2022-12-24T05:21:17.026Z,100.00
2022-12-24T05:24:02.554Z,100.00
2022-12-24T05:26:42.887Z,100.00
2022-12-24T05:29:12.426Z,100.00
2022-12-24T05:31:40.463Z,100.00
2022-12-24T05:34:08.476Z,100.00
2022-12-24T05:36:35.628Z,100.00
2022-12-24T05:39:02.807Z,100.00
2022-12-24T05:41:29.810Z,100.00
2022-12-24T05:43:56.822Z,100.00
2022-12-24T05:46:24.611Z,100.00
2022-12-24T05:48:52.863Z,100.00
2022-12-24T05:51:22.535Z,100.00
2022-12-24T05:53:51.166Z,100.00
2022-12-24T05:56:21.936Z,100.00
2022-12-24T05:58:50.071Z,100.00
2022-12-24T06:01:17.357Z,100.00
2022-12-24T06:03:44.421Z,100.00
2022-12-24T06:06:14.645Z,100.00
2022-12-24T06:08:42.528Z,100.00
2022-12-24T06:11:14.070Z,100.00
2022-12-24T06:13:41.942Z,100.00
2022-12-24T06:16:12.580Z,100.00
2022-12-24T06:18:39.714Z,100.00
2022-12-24T06:21:07.318Z,100.00
2022-12-24T06:23:36.704Z,98.96
2022-12-24T06:26:05.088Z,88.76
2022-12-24T06:28:34.194Z,80.83
2022-12-24T06:31:03.123Z,68.03
2022-12-24T06:33:31.904Z,60.47
2022-12-24T06:35:59.616Z,58.46
2022-12-24T06:38:26.879Z,55.50
2022-12-24T06:40:56.019Z,52.58
2022-12-24T06:43:23.885Z,49.64
2022-12-24T06:45:50.899Z,50.42
2022-12-24T06:48:18.064Z,49.25
2022-12-24T06:50:45.141Z,47.03
2022-12-24T06:53:12.558Z,46.30
2022-12-24T06:55:39.682Z,45.59
2022-12-24T06:58:06.553Z,45.96
2022-12-24T07:00:33.594Z,43.08
2022-12-24T07:03:00.881Z,43.18
2022-12-24T07:05:28.554Z,45.13
2022-12-24T07:07:55.693Z,44.00
2022-12-24T07:10:23.013Z,45.64
2022-12-24T07:12:49.955Z,46.03
2022-12-24T07:15:17.546Z,48.52
2022-12-24T07:17:44.488Z,48.99
2022-12-24T07:20:15.006Z,52.76
2022-12-24T07:22:42.822Z,55.34
2022-12-24T07:25:10.757Z,50.59
2022-12-24T07:27:38.761Z,48.73
2022-12-24T07:30:06.524Z,43.77
2022-12-24T07:32:33.546Z,44.97
2022-12-24T07:35:00.525Z,41.60
2022-12-24T07:37:27.501Z,42.48
2022-12-24T07:39:54.555Z,42.03
2022-12-24T07:42:21.959Z,41.98
2022-12-24T07:44:49.544Z,40.78
2022-12-24T07:47:16.495Z,39.16
2022-12-24T07:49:43.573Z,37.44
2022-12-24T07:52:10.600Z,36.47
2022-12-24T07:54:37.463Z,36.23
2022-12-24T07:57:04.617Z,35.86
2022-12-24T07:59:31.702Z,36.50
2022-12-24T08:01:58.877Z,34.47
2022-12-24T08:04:25.924Z,33.17
2022-12-24T08:06:53.005Z,32.90
2022-12-24T08:09:20.083Z,34.94
2022-12-24T08:11:52.039Z,34.86
2022-12-24T08:14:19.653Z,35.71
2022-12-24T08:16:46.729Z,36.08
2022-12-24T08:19:13.841Z,34.77
2022-12-24T08:21:40.871Z,35.03
2022-12-24T08:24:07.810Z,34.43
2022-12-24T08:26:34.904Z,35.60
2022-12-24T08:29:02.897Z,35.73
2022-12-24T08:31:30.517Z,35.93
2022-12-24T08:33:57.591Z,36.38
2022-12-24T08:36:24.511Z,35.75
2022-12-24T08:38:51.549Z,36.93
2022-12-24T08:41:18.429Z,38.02
2022-12-24T08:43:45.441Z,37.62
2022-12-24T08:46:12.414Z,39.14
2022-12-24T08:48:39.745Z,40.63
2022-12-24T08:51:11.606Z,40.36
2022-12-24T08:53:39.574Z,39.15
2022-12-24T08:56:08.914Z,37.93
2022-12-24T08:58:36.329Z,36.31
2022-12-24T09:01:14.561Z,35.53
2022-12-24T09:03:42.359Z,35.45
2022-12-24T09:06:09.962Z,36.75
2022-12-24T09:08:37.070Z,37.74
2022-12-24T09:11:16.085Z,38.11
2022-12-24T09:13:44.837Z,38.93
2022-12-24T09:16:12.309Z,36.19
2022-12-24T09:18:40.098Z,39.67
2022-12-24T09:21:18.820Z,37.32
2022-12-24T09:23:48.062Z,38.18
2022-12-24T09:26:21.096Z,38.95
2022-12-24T09:28:48.688Z,40.55
2022-12-24T09:31:16.697Z,41.87
2022-12-24T09:33:45.065Z,38.91
2022-12-24T09:36:12.347Z,38.91
2022-12-24T09:38:42.544Z,38.05
2022-12-24T09:41:55.117Z,34.91
2022-12-24T09:44:37.092Z,35.79
2022-12-24T09:47:13.324Z,35.86
2022-12-24T09:49:46.653Z,36.89
2022-12-24T09:52:29.323Z,35.04
2022-12-24T09:55:07.231Z,35.14
2022-12-24T09:57:39.027Z,35.43
2022-12-24T10:00:18.122Z,33.91
2022-12-24T10:02:45.553Z,31.84
2022-12-24T10:05:17.814Z,31.32
2022-12-24T10:08:33.037Z,31.98
2022-12-24T10:11:20.400Z,30.09
2022-12-24T10:14:05.711Z,30.14
2022-12-24T10:16:42.070Z,30.01
2022-12-24T10:19:27.085Z,28.12
2022-12-24T10:21:56.899Z,28.92
2022-12-24T10:24:28.856Z,29.83
2022-12-24T10:27:02.982Z,30.25
2022-12-24T10:29:42.095Z,33.05
2022-12-24T10:32:09.066Z,32.98
2022-12-24T10:34:44.498Z,34.46
2022-12-24T10:37:17.774Z,34.12
2022-12-24T10:39:44.913Z,35.03
2022-12-24T10:42:14.950Z,33.28
2022-12-24T10:44:42.470Z,32.17
2022-12-24T10:47:10.815Z,33.51
2022-12-24T10:49:46.020Z,36.15
2022-12-24T10:52:16.057Z,36.76
2022-12-24T10:55:09.385Z,34.81
2022-12-24T10:57:36.775Z,39.62
2022-12-24T11:00:06.512Z,38.22
2022-12-24T11:02:33.574Z,38.88
2022-12-24T11:05:03.570Z,39.59
2022-12-24T11:07:32.523Z,39.66
2022-12-24T11:10:02.160Z,37.37
2022-12-24T11:13:00.212Z,39.21
2022-12-24T11:15:35.281Z,39.20
2022-12-24T11:18:13.916Z,40.18
2022-12-24T11:20:41.858Z,38.45
2022-12-24T11:23:16.586Z,39.02
2022-12-24T11:25:49.372Z,37.26
2022-12-24T11:28:27.834Z,33.26
2022-12-24T11:31:02.000Z,33.03
2022-12-24T11:33:30.977Z,30.26
2022-12-24T11:36:06.856Z,30.34
2022-12-24T11:38:35.472Z,30.52
2022-12-24T11:41:10.707Z,32.94
2022-12-24T11:43:44.669Z,33.92
2022-12-24T11:46:15.336Z,33.55
2022-12-24T11:48:42.467Z,34.44
2022-12-24T11:51:22.466Z,36.15
2022-12-24T11:53:49.372Z,38.26
2022-12-24T11:56:30.091Z,40.19
2022-12-24T11:59:02.457Z,43.88
2022-12-24T12:01:45.924Z,47.98
2022-12-24T12:04:19.227Z,49.12
2022-12-24T12:06:51.039Z,49.60
2022-12-24T12:09:22.847Z,49.34
2022-12-24T12:12:01.136Z,48.85
2022-12-24T12:14:33.651Z,44.86
2022-12-24T12:17:25.789Z,43.58
2022-12-24T12:20:09.743Z,42.06
2022-12-24T12:22:47.086Z,37.45
2022-12-24T12:25:26.664Z,35.93
2022-12-24T12:27:56.987Z,35.83
2022-12-24T12:30:24.796Z,34.67
2022-12-24T12:32:59.511Z,34.44
2022-12-24T12:35:32.017Z,36.09
2022-12-24T12:38:06.089Z,37.71
2022-12-24T12:40:45.574Z,40.63
2022-12-24T12:43:34.372Z,42.94
2022-12-24T12:46:04.365Z,45.03
2022-12-24T12:49:00.340Z,46.20
2022-12-24T12:51:51.835Z,47.60
2022-12-24T12:54:55.529Z,50.47
2022-12-24T12:57:26.725Z,51.70
2022-12-24T13:00:00.179Z,51.43
2022-12-24T13:02:49.027Z,52.60
2022-12-24T13:05:32.978Z,53.36
2022-12-24T13:08:37.486Z,56.07
2022-12-24T13:11:10.292Z,57.67
2022-12-24T13:14:14.547Z,57.82
2022-12-24T13:17:13.446Z,58.01
2022-12-24T13:19:43.369Z,58.52
2022-12-24T13:22:18.780Z,58.45
2022-12-24T13:24:55.486Z,58.45
2022-12-24T13:27:25.391Z,59.03
2022-12-24T13:30:21.217Z,59.22
2022-12-24T13:32:53.369Z,59.56
2022-12-24T13:35:20.190Z,59.20
2022-12-24T13:37:48.533Z,59.24
2022-12-24T13:40:26.621Z,58.97
2022-12-24T13:42:59.692Z,59.38
2022-12-24T13:45:29.922Z,58.99
2022-12-24T13:48:06.072Z,58.74
2022-12-24T13:50:36.193Z,58.18
2022-12-24T13:53:05.520Z,58.05
2022-12-24T13:55:33.641Z,58.01
2022-12-24T13:58:04.545Z,58.24
2022-12-24T14:00:42.758Z,58.64
2022-12-24T14:03:15.707Z,59.09
2022-12-24T14:05:42.501Z,58.77
2022-12-24T14:08:28.498Z,59.31
2022-12-24T14:11:02.829Z,59.56
2022-12-24T14:13:38.895Z,59.98
2022-12-24T14:16:14.968Z,60.30
2022-12-24T14:18:46.249Z,60.42
2022-12-24T14:21:21.854Z,60.84
2022-12-24T14:24:26.412Z,61.52
2022-12-24T14:27:07.652Z,61.65
2022-12-24T14:29:41.656Z,61.68
2022-12-24T14:32:15.849Z,61.85
2022-12-24T14:34:43.066Z,63.01
2022-12-24T14:37:13.032Z,62.78
2022-12-24T14:39:44.898Z,63.11
2022-12-24T14:42:33.372Z,63.21
2022-12-24T14:45:07.587Z,63.18
2022-12-24T14:47:52.405Z,62.91
2022-12-24T14:50:57.161Z,62.66
2022-12-24T14:53:39.616Z,63.54
2022-12-24T14:56:14.663Z,63.48
2022-12-24T14:58:43.619Z,64.18
2022-12-24T15:01:27.200Z,64.04
2022-12-24T15:04:09.507Z,64.26
2022-12-24T15:06:39.976Z,64.39
2022-12-24T15:09:17.567Z,65.20
2022-12-24T15:11:46.765Z,65.55
2022-12-24T15:14:14.229Z,66.50
2022-12-24T15:29:03.608Z,70.10
2022-12-24T15:31:31.914Z,69.94
2022-12-24T15:34:01.920Z,69.83
2022-12-24T15:36:35.063Z,70.07
2022-12-24T15:39:07.019Z,68.28
2022-12-24T15:42:10.612Z,68.58
2022-12-24T15:44:39.408Z,67.64
2022-12-24T15:47:21.957Z,66.90
2022-12-24T15:49:52.378Z,66.94
2022-12-24T15:52:24.735Z,66.00
2022-12-24T15:54:57.435Z,65.56
2022-12-24T15:57:31.787Z,65.22
2022-12-24T16:00:01.221Z,64.89
2022-12-24T16:02:45.500Z,65.03
2022-12-24T16:05:30.469Z,64.87
2022-12-24T16:08:22.251Z,64.87
2022-12-24T16:10:50.801Z,65.00
2022-12-24T16:13:25.047Z,65.15
2022-12-24T16:15:54.015Z,64.50
2022-12-24T16:18:54.476Z,64.93
2022-12-24T16:21:26.168Z,64.10
2022-12-24T16:23:56.025Z,64.60
2022-12-24T16:26:23.329Z,64.97
2022-12-24T16:28:51.037Z,65.09
2022-12-24T16:31:20.382Z,65.00
2022-12-24T16:33:47.595Z,65.14
2022-12-24T16:36:14.695Z,65.01
2022-12-24T16:39:00.398Z,65.05
2022-12-24T16:41:27.347Z,64.56
2022-12-24T16:43:54.236Z,64.62
2022-12-24T16:46:21.283Z,64.96
2022-12-24T16:48:49.160Z,64.81
2022-12-24T16:51:16.139Z,65.76
2022-12-24T16:53:43.254Z,66.96
2022-12-24T16:56:10.154Z,69.02
2022-12-24T16:58:37.187Z,71.29
2022-12-24T17:01:09.211Z,72.84
2022-12-24T17:03:36.720Z,74.07
2022-12-24T17:06:07.671Z,74.82
2022-12-24T17:08:34.948Z,75.13
2022-12-24T17:11:01.852Z,77.44
2022-12-24T17:13:31.538Z,78.29
2022-12-24T17:16:00.745Z,79.69
2022-12-24T17:18:27.801Z,80.34
2022-12-24T17:21:04.123Z,80.48
2022-12-24T17:23:31.039Z,82.26
2022-12-24T17:25:58.790Z,82.72
2022-12-24T17:28:26.141Z,83.20
2022-12-24T17:30:53.299Z,83.64
2022-12-24T17:33:20.330Z,84.05
2022-12-24T17:35:49.262Z,83.69
2022-12-24T17:38:16.281Z,83.46
2022-12-24T17:40:43.151Z,83.58
2022-12-24T17:43:11.027Z,83.59
2022-12-24T17:45:42.470Z,83.35
2022-12-24T17:48:09.825Z,84.11
2022-12-24T17:50:40.164Z,83.69
2022-12-24T17:53:07.920Z,83.33
2022-12-24T17:55:39.081Z,83.16
2022-12-24T17:58:08.026Z,83.37
2022-12-24T18:00:35.600Z,83.42
2022-12-24T18:03:02.736Z,82.98
2022-12-24T18:05:29.922Z,83.15
2022-12-24T18:07:59.843Z,83.40
2022-12-24T18:10:26.747Z,83.73
2022-12-24T18:12:53.903Z,83.43
2022-12-24T18:15:22.483Z,83.80
2022-12-24T18:17:56.398Z,83.03
2022-12-24T18:20:23.407Z,83.15
2022-12-24T18:22:50.321Z,83.48
2022-12-24T18:25:17.515Z,84.11
2022-12-24T18:27:44.423Z,84.39
2022-12-24T18:30:11.734Z,83.77
2022-12-24T18:32:38.763Z,84.33
2022-12-24T18:35:06.685Z,84.03
2022-12-24T18:37:34.097Z,83.94
2022-12-24T18:40:01.107Z,83.60
2022-12-24T18:42:28.540Z,82.95
2022-12-24T18:44:55.594Z,83.85
2022-12-24T18:47:22.648Z,84.33
2022-12-24T18:49:49.714Z,83.89
2022-12-24T18:52:22.407Z,83.03
2022-12-24T18:54:50.752Z,83.05
2022-12-24T18:57:17.618Z,82.27
2022-12-24T18:59:44.534Z,81.54
2022-12-24T19:02:11.495Z,80.66
2022-12-24T19:04:38.685Z,79.94
2022-12-24T19:07:08.038Z,80.12
2022-12-24T19:09:34.909Z,80.27
2022-12-24T19:12:01.810Z,79.85
2022-12-24T19:14:28.747Z,79.57
2022-12-24T19:16:55.885Z,79.54
2022-12-24T19:19:24.224Z,80.53
2022-12-24T19:21:51.799Z,79.78
2022-12-24T19:24:18.738Z,80.71
2022-12-24T19:26:45.722Z,80.49
2022-12-24T19:29:12.829Z,80.38
2022-12-24T19:31:39.826Z,80.40
2022-12-24T19:34:06.824Z,80.72
2022-12-24T19:36:34.857Z,80.47
2022-12-24T19:39:01.965Z,80.96
2022-12-24T19:41:30.356Z,80.44
2022-12-24T19:43:59.970Z,81.09
2022-12-24T19:46:30.276Z,81.46
2022-12-24T19:49:00.197Z,81.24
2022-12-24T19:51:29.252Z,81.20
2022-12-24T19:53:57.655Z,80.89
2022-12-24T19:56:27.583Z,80.71
2022-12-24T19:58:58.763Z,80.67
2022-12-24T20:01:28.540Z,81.35
2022-12-24T20:03:56.638Z,80.58
2022-12-24T20:06:26.347Z,81.32
2022-12-24T20:09:01.580Z,81.09
2022-12-24T20:13:59.113Z,81.74
2022-12-24T20:16:26.835Z,82.05
2022-12-24T20:18:55.609Z,82.21
2022-12-24T20:21:23.453Z,81.60
2022-12-24T20:23:51.286Z,81.76
2022-12-24T20:26:21.210Z,82.52
2022-12-24T20:28:48.708Z,82.27
2022-12-24T20:31:25.245Z,82.34
2022-12-24T20:33:52.834Z,82.57
2022-12-24T20:36:22.545Z,81.82
2022-12-24T20:38:50.257Z,81.98
2022-12-24T20:41:19.670Z,82.61
2022-12-24T20:43:48.858Z,82.75
2022-12-24T20:46:20.913Z,82.03
2022-12-24T20:48:48.343Z,83.36
2022-12-24T20:51:24.439Z,83.26
2022-12-24T20:53:57.222Z,83.64
2022-12-24T20:56:25.066Z,83.24
2022-12-24T20:58:52.727Z,83.74
2022-12-24T21:01:25.360Z,83.02
2022-12-24T21:04:04.996Z,82.55
2022-12-24T21:06:33.940Z,82.73
2022-12-24T21:09:01.727Z,82.99
2022-12-24T21:11:47.193Z,83.17
2022-12-24T21:14:15.115Z,82.62
2022-12-24T21:16:42.333Z,83.57
2022-12-24T21:19:12.012Z,83.24
2022-12-24T21:21:39.075Z,83.69
2022-12-24T21:24:06.394Z,84.09
2022-12-24T21:26:35.924Z,84.07
2022-12-24T21:29:04.815Z,84.58
2022-12-24T21:31:32.129Z,83.82
2022-12-24T21:33:59.149Z,84.46
2022-12-24T21:36:27.054Z,84.47
2022-12-24T21:38:55.016Z,84.44
2022-12-24T21:41:26.006Z,85.60
2022-12-24T21:43:53.415Z,85.54
2022-12-24T21:46:25.007Z,85.80
2022-12-24T21:49:15.172Z,86.16
2022-12-24T21:51:46.906Z,87.01
2022-12-24T21:54:31.627Z,86.98
2022-12-24T21:57:18.971Z,86.96
2022-12-24T21:59:52.708Z,87.25
2022-12-24T22:02:22.871Z,88.37
2022-12-24T22:04:58.072Z,88.00
2022-12-24T22:07:45.908Z,87.75
2022-12-24T22:10:32.717Z,87.15
2022-12-24T22:13:00.485Z,88.19
2022-12-24T22:15:27.736Z,88.46
2022-12-24T22:17:54.577Z,88.51
2022-12-24T22:20:21.627Z,88.95
2022-12-24T22:22:49.233Z,89.60
2022-12-24T22:25:16.706Z,90.06
2022-12-24T22:27:44.000Z,89.94
2022-12-24T22:30:11.974Z,90.72
2022-12-24T22:32:38.977Z,90.77
2022-12-24T22:35:06.343Z,91.00
2022-12-24T22:37:34.329Z,90.89
2022-12-24T22:40:01.322Z,91.01
2022-12-24T22:42:30.321Z,91.01
2022-12-24T22:44:57.158Z,91.21
2022-12-24T22:47:24.115Z,91.63
2022-12-24T22:49:51.059Z,91.24
2022-12-24T22:52:17.972Z,91.05
2022-12-24T22:54:44.953Z,91.64
2022-12-24T22:57:12.001Z,91.88
2022-12-24T22:59:40.024Z,91.76
2022-12-24T23:02:07.684Z,92.15
2022-12-24T23:04:38.918Z,91.97
2022-12-24T23:07:08.612Z,92.77
2022-12-24T23:09:35.778Z,92.44
2022-12-24T23:12:03.300Z,92.49
2022-12-24T23:14:49.033Z,93.36
2022-12-24T23:17:16.071Z,93.67
2022-12-24T23:19:43.438Z,93.90
2022-12-24T23:22:12.886Z,93.69
2022-12-24T23:24:41.954Z,93.84
2022-12-24T23:27:09.097Z,94.20
2022-12-24T23:29:36.429Z,94.61
2022-12-24T23:32:03.628Z,94.14
2022-12-24T23:34:30.627Z,93.18
2022-12-24T23:36:57.648Z,93.58
2022-12-24T23:39:24.762Z,93.15
2022-12-24T23:41:51.678Z,93.22
2022-12-24T23:44:18.729Z,92.49
2022-12-24T23:46:45.753Z,93.03
2022-12-24T23:49:15.893Z,93.17
2022-12-24T23:51:42.786Z,93.30
2022-12-24T23:54:10.044Z,93.18
2022-12-24T23:56:37.004Z,93.35
2022-12-24T23:59:04.331Z,93.23
